METAR Data
IDs: Format: Raw Decoded Include TAF

Data at: 2201 UTC 01 Dec 2021

KTYQ 012155Z AUTO 23008KT 7SM OVC008 07/06 A2988 RMK AO2 T00670056